METAR Data
IDs: Format: Raw Decoded Include TAF

Data at: 1606 UTC 16 Feb 2019

METAR for:KCMH (Columbus Intl, OH, US)
Text:KCMH 161551Z 36008KT 10SM OVC020 M04/M08 A3006 RMK AO2 SLP189 T10391083
Temperature: -3.9°C ( 25°F)
Dewpoint: -8.3°C ( 17°F) [RH = 71%]
Pressure (altimeter):30.06 inches Hg (1018.0 mb) [Sea level pressure: 1018.9 mb]
Winds:from the N (360 degrees) at 9 MPH (8 knots; 4.1 m/s)
Visibility:10 or more sm (16+ km)
Ceiling:2000 feet AGL
Clouds: overcast cloud deck at 2000 feet AGL